ADDS METAR Data

Data at: 0742 UTC 24 Oct 2017

METAR for:CYHZ (Halifax/Stanfield In, NS, CN)
Text:CYHZ 240720Z 23008KT 15SM FEW007 BKN014 12/11 A3025 RMK SF2SC3 SLP247
Temperature: 12.0°C ( 54°F)
Dewpoint: 11.0°C ( 52°F) [RH = 94%]
Pressure (altimeter):30.25 inches Hg (1024.5 mb) [Sea level pressure: 1024.7 mb]
Winds:from the SW (230 degrees) at 9 MPH (8 knots; 4.1 m/s)
Visibility: 15 sm ( 24 km)
Ceiling:1400 feet AGL
Clouds: few clouds at 700 feet AGL, broken clouds at 1400 feet AGL